Radiance Of The Seas — C6SE7 — position and weather

sailwx.info

Track history (hours):
 
Tides and Currents Weather Stations Pressure Air Temp Water Temp Dewpoint Dewpoint Depression Visibility Wind Speed Wind Dir Waves Ship Positions

Radiance Of The Seas

Operator: Royal Caribbean Cruises Ltd

Last reported at 2019-Feb-15 05:12 UTC. Time now 2019-Feb-16 03:58 UTC.
Position S 37°30' E 176°27'.

Type: Passenger vessel. MMSI: 311319000.

Date/timePositionNaut miles runAvg speedWind from/ knotsBaromVisibWave heightAir tempDewpointWater temp
2019-Feb-15 05:12S 37°30' E 176°27'420.7
2019-Feb-15 05:01S 37°31' E 176°22'918.0
2019-Feb-15 04:30S 37°35' E 176°12'3 6.7
2019-Feb-15 04:00S 37°39' E 176°11'0 0.1
2019-Feb-15 03:28S 37°39' E 176°11'0 0.0
2019-Feb-15 02:58S 37°39' E 176°11'0 0.0
2019-Feb-15 02:28S 37°39' E 176°11'0 0.0
2019-Feb-15 01:58S 37°39' E 176°11'0 0.0
2019-Feb-15 01:28S 37°39' E 176°11'0 0.0
2019-Feb-15 00:58S 37°39' E 176°11'0 0.0
2019-Feb-15 00:28S 37°39' E 176°11'0 0.0
2019-Feb-14 23:58S 37°39' E 176°11'0 0.0
2019-Feb-14 23:28S 37°39' E 176°11'0 0.0
2019-Feb-14 22:58S 37°39' E 176°11'0 0.0
2019-Feb-14 22:28S 37°39' E 176°11'0 0.0
2019-Feb-14 21:58S 37°39' E 176°11'0 0.0
2019-Feb-14 21:28S 37°39' E 176°11'0 0.0
2019-Feb-14 20:58S 37°39' E 176°11'0 0.0
2019-Feb-14 20:28S 37°39' E 176°11'0 0.0
2019-Feb-14 19:58S 37°39' E 176°11'0 0.0
2019-Feb-14 19:25S 37°39' E 176°11'0 0.0
2019-Feb-14 18:58S 37°39' E 176°11'0 0.0
2019-Feb-14 18:28S 37°39' E 176°11'0 0.0
2019-Feb-14 17:58S 37°39' E 176°11'0 0.0
2019-Feb-14 17:28S 37°39' E 176°11'0 0.0
2019-Feb-14 16:58S 37°39' E 176°11'0 0.0
2019-Feb-14 16:30S 37°39' E 176°11'2 4.4
2019-Feb-14 16:00S 37°36' E 176°11'713.8
2019-Feb-14 15:30S 37°30' E 176°11'1118.0
2019-Feb-14 14:55S 37°19' E 176°09'8916.4
2019-Feb-14 09:28S 35°53' E 175°41'2617.7
2019-Feb-14 08:01S 35°37' E 175°16'017.8
2019-Feb-14 08:00S 35°37' E 175°16'1318.3
2019-Feb-14 07:17S 35°28' E 175°03'62 2.6
2019-Feb-13 07:46S 36°30' E 174°59'3 9.7
2019-Feb-13 07:27S 36°33' E 174°58'4 9.7
2019-Feb-13 07:00S 36°37' E 174°57'5 9.9
2019-Feb-13 06:30S 36°41' E 174°53'5 9.8
2019-Feb-13 05:57S 36°46' E 174°49'510.3
2019-Feb-13 05:30S 36°50' E 174°48'2 3.9
2019-Feb-13 05:00S 36°51' E 174°46'0 0.0
2019-Feb-13 04:30S 36°51' E 174°46'0 0.0
2019-Feb-13 04:00S 36°51' E 174°46'0 0.0
2019-Feb-13 03:30S 36°51' E 174°46'0 0.0
2019-Feb-13 02:57S 36°51' E 174°46'0 0.0
2019-Feb-13 02:27S 36°51' E 174°46'0 0.0
2019-Feb-13 01:57S 36°51' E 174°46'0 0.0
2019-Feb-13 01:30S 36°51' E 174°46'0 0.0
2019-Feb-13 00:57S 36°51' E 174°46'0 0.0
2019-Feb-13 00:30S 36°51' E 174°46'0 0.0
2019-Feb-13 00:00S 36°51' E 174°46'0 0.0
2019-Feb-12 23:30S 36°51' E 174°46'0 0.0
2019-Feb-12 23:00S 36°51' E 174°46'0 0.0
2019-Feb-12 22:27S 36°51' E 174°46'0 0.0
2019-Feb-12 21:57S 36°51' E 174°46'0 0.0
2019-Feb-12 21:27S 36°51' E 174°46'0 0.0
2019-Feb-12 21:00S 36°51' E 174°46'0 0.0
2019-Feb-12 20:27S 36°51' E 174°46'0 0.0
2019-Feb-12 19:54S 36°51' E 174°46'0 0.0
2019-Feb-12 19:30S 36°51' E 174°46'0 0.0
2019-Feb-12 19:00S 36°51' E 174°46'0 0.0
2019-Feb-12 18:30S 36°51' E 174°46'0 0.0
2019-Feb-12 18:00S 36°51' E 174°46'0 0.0
2019-Feb-12 17:30S 36°51' E 174°46'1 1.0
2019-Feb-12 17:00S 36°50' E 174°47'3 6.1
2019-Feb-12 16:30S 36°48' E 174°49'510.9
2019-Feb-12 16:00S 36°43' E 174°52'510.0
2019-Feb-12 15:30S 36°39' E 174°56'5 9.6
2019-Feb-12 15:00S 36°35' E 174°58'5 9.9
2019-Feb-12 14:30S 36°30' E 174°59'5 9.8
2019-Feb-12 14:00S 36°25' E 174°59'5 9.9
2019-Feb-12 13:29S 36°20' E 174°58'59 2.1
2019-Feb-11 09:12S 36°42' E 176°06'317.2
2019-Feb-11 09:00S 36°46' E 176°07'917.1
2019-Feb-11 08:30S 36°54' E 176°09'917.1
2019-Feb-11 08:00S 37°03' E 176°09'916.9
2019-Feb-11 07:30S 37°11' E 176°08'816.7
2019-Feb-11 07:00S 37°19' E 176°08'816.3
2019-Feb-11 06:30S 37°27' E 176°10'714.7
2019-Feb-11 06:00S 37°35' E 176°11'4 8.3
2019-Feb-11 05:30S 37°39' E 176°11'0 0.3
2019-Feb-11 04:58S 37°39' E 176°11'0 0.0
2019-Feb-11 04:28S 37°39' E 176°11'0 0.0
2019-Feb-11 03:58S 37°39' E 176°11'0 0.0
2019-Feb-11 03:28S 37°39' E 176°11'0 0.0
2019-Feb-11 02:58S 37°39' E 176°11'0 0.0
2019-Feb-11 02:28S 37°39' E 176°11'0 0.0
2019-Feb-11 01:55S 37°39' E 176°11'0 0.0
2019-Feb-11 01:22S 37°39' E 176°11'0 0.0
2019-Feb-11 00:58S 37°39' E 176°11'0 0.0
2019-Feb-11 00:28S 37°39' E 176°11'0 0.0
2019-Feb-10 23:49S 37°39' E 176°11'0 0.0
2019-Feb-10 19:22S 37°39' E 176°11'0 0.0
2019-Feb-10 18:46S 37°39' E 176°11'0 0.0
2019-Feb-10 18:28S 37°39' E 176°11'0 0.0
2019-Feb-10 17:42S 37°39' E 176°11'0 0.9
2019-Feb-10 17:30S 37°39' E 176°11'2 4.4
2019-Feb-10 17:00S 37°36' E 176°11'510.4
2019-Feb-10 16:29S 37°33' E 176°16'612.5
2019-Feb-10 16:00S 37°30' E 176°22'612.3
2019-Feb-10 15:30S 37°27' E 176°29'612.3
2019-Feb-10 15:00S 37°26' E 176°37'612.4
2019-Feb-10 14:30S 37°25' E 176°45'612.4
2019-Feb-10 14:00S 37°24' E 176°52'612.9
2019-Feb-10 13:30S 37°23' E 177°00'713.2
2019-Feb-10 13:00S 37°23' E 177°09'612.8
2019-Feb-10 12:30S 37°23' E 177°17'612.5
2019-Feb-10 12:00S 37°24' E 177°25'1012.3
2019-Feb-10 11:13S 37°25' E 177°37'25210.0
2019-Feb-09 10:00S 41°24' E 175°54'3011.8 030 / 301015.0 17.0 18.0
2019-Feb-09 07:27S 41°42' E 175°22'612.6
2019-Feb-09 07:00S 41°42' E 175°14'612.5
2019-Feb-09 06:30S 41°40' E 175°06'613.0
2019-Feb-09 06:00S 41°36' E 174°59'713.4
2019-Feb-09 05:30S 41°31' E 174°53'714.0
2019-Feb-09 05:01S 41°25' E 174°50'813.2
2019-Feb-09 04:26S 41°17' E 174°51'3 5.3
2019-Feb-09 03:53S 41°16' E 174°47'0 0.0
2019-Feb-09 03:29S 41°16' E 174°47'0 0.0
2019-Feb-09 02:56S 41°16' E 174°47'0 0.0
2019-Feb-09 02:29S 41°16' E 174°47'0 0.0
2019-Feb-09 01:56S 41°16' E 174°47'0 0.0
2019-Feb-09 01:26S 41°16' E 174°47'0 0.0
2019-Feb-09 00:59S 41°16' E 174°47'0 0.0
2019-Feb-09 00:29S 41°16' E 174°47'0 0.0
2019-Feb-08 23:56S 41°16' E 174°47'0 0.0
2019-Feb-08 23:29S 41°16' E 174°47'0 0.0
2019-Feb-08 22:59S 41°16' E 174°47'0 0.0
2019-Feb-08 21:20S 41°16' E 174°47'0 0.0
2019-Feb-08 18:30S 41°16' E 174°47'6 7.3
2019-Feb-08 17:38S 41°22' E 174°50'213.4
2019-Feb-08 17:30S 41°24' E 174°49'714.6
2019-Feb-08 17:00S 41°30' E 174°46'815.1
2019-Feb-08 16:30S 41°38' E 174°43'714.8
2019-Feb-08 16:00S 41°44' E 174°39'714.7
2019-Feb-08 15:30S 41°51' E 174°34'714.9
2019-Feb-08 15:00S 41°58' E 174°30'714.1
2019-Feb-08 14:30S 42°04' E 174°25'714.4
2019-Feb-08 14:00S 42°10' E 174°20'714.3
2019-Feb-08 13:30S 42°17' E 174°16'338 6.8
2019-Feb-06 11:58S 46°43' E 169°24'816.9
2019-Feb-06 11:30S 46°45' E 169°13'917.1
2019-Feb-06 11:00S 46°46' E 169°01'918.9
2019-Feb-06 10:30S 46°43' E 168°48'918.3
2019-Feb-06 10:00S 46°42' E 168°34'917.9
2019-Feb-06 09:30S 46°41' E 168°21'918.5
2019-Feb-06 09:00S 46°38' E 168°09'917.1
2019-Feb-06 08:30S 46°36' E 167°57'1516.7
2019-Feb-06 07:38S 46°31' E 167°37'  
Track history (hours):
 
Tides and Currents Weather Stations Pressure Air Temp Water Temp Dewpoint Dewpoint Depression Visibility Wind Speed Wind Dir Waves Ship Positions

Radiance Of The Seas

Operator: Royal Caribbean Cruises Ltd

Last reported at 2019-Feb-15 05:12 UTC. Time now 2019-Feb-16 03:58 UTC.
Position S 37°30' E 176°27'.

Type: Passenger vessel. MMSI: 311319000.

Date/timePositionNaut miles runAvg speedWind from/ knotsBaromVisibWave heightAir tempDewpointWater temp
2019-Feb-15 05:12S 37°30' E 176°27'420.7
2019-Feb-15 05:01S 37°31' E 176°22'918.0
2019-Feb-15 04:30S 37°35' E 176°12'3 6.7
2019-Feb-15 04:00S 37°39' E 176°11'0 0.1
2019-Feb-15 03:28S 37°39' E 176°11'0 0.0
2019-Feb-15 02:58S 37°39' E 176°11'0 0.0
2019-Feb-15 02:28S 37°39' E 176°11'0 0.0
2019-Feb-15 01:58S 37°39' E 176°11'0 0.0
2019-Feb-15 01:28S 37°39' E 176°11'0 0.0
2019-Feb-15 00:58S 37°39' E 176°11'0 0.0
2019-Feb-15 00:28S 37°39' E 176°11'0 0.0
2019-Feb-14 23:58S 37°39' E 176°11'0 0.0
2019-Feb-14 23:28S 37°39' E 176°11'0 0.0
2019-Feb-14 22:58S 37°39' E 176°11'0 0.0
2019-Feb-14 22:28S 37°39' E 176°11'0 0.0
2019-Feb-14 21:58S 37°39' E 176°11'0 0.0
2019-Feb-14 21:28S 37°39' E 176°11'0 0.0
2019-Feb-14 20:58S 37°39' E 176°11'0 0.0
2019-Feb-14 20:28S 37°39' E 176°11'0 0.0
2019-Feb-14 19:58S 37°39' E 176°11'0 0.0
2019-Feb-14 19:25S 37°39' E 176°11'0 0.0
2019-Feb-14 18:58S 37°39' E 176°11'0 0.0
2019-Feb-14 18:28S 37°39' E 176°11'0 0.0
2019-Feb-14 17:58S 37°39' E 176°11'0 0.0
2019-Feb-14 17:28S 37°39' E 176°11'0 0.0
2019-Feb-14 16:58S 37°39' E 176°11'0 0.0
2019-Feb-14 16:30S 37°39' E 176°11'2 4.4
2019-Feb-14 16:00S 37°36' E 176°11'713.8
2019-Feb-14 15:30S 37°30' E 176°11'1118.0
2019-Feb-14 14:55S 37°19' E 176°09'8916.4
2019-Feb-14 09:28S 35°53' E 175°41'2617.7
2019-Feb-14 08:01S 35°37' E 175°16'017.8
2019-Feb-14 08:00S 35°37' E 175°16'1318.3
2019-Feb-14 07:17S 35°28' E 175°03'62 2.6
2019-Feb-13 07:46S 36°30' E 174°59'3 9.7
2019-Feb-13 07:27S 36°33' E 174°58'4 9.7
2019-Feb-13 07:00S 36°37' E 174°57'5 9.9
2019-Feb-13 06:30S 36°41' E 174°53'5 9.8
2019-Feb-13 05:57S 36°46' E 174°49'510.3
2019-Feb-13 05:30S 36°50' E 174°48'2 3.9
2019-Feb-13 05:00S 36°51' E 174°46'0 0.0
2019-Feb-13 04:30S 36°51' E 174°46'0 0.0
2019-Feb-13 04:00S 36°51' E 174°46'0 0.0
2019-Feb-13 03:30S 36°51' E 174°46'0 0.0
2019-Feb-13 02:57S 36°51' E 174°46'0 0.0
2019-Feb-13 02:27S 36°51' E 174°46'0 0.0
2019-Feb-13 01:57S 36°51' E 174°46'0 0.0
2019-Feb-13 01:30S 36°51' E 174°46'0 0.0
2019-Feb-13 00:57S 36°51' E 174°46'0 0.0
2019-Feb-13 00:30S 36°51' E 174°46'0 0.0
2019-Feb-13 00:00S 36°51' E 174°46'0 0.0
2019-Feb-12 23:30S 36°51' E 174°46'0 0.0
2019-Feb-12 23:00S 36°51' E 174°46'0 0.0
2019-Feb-12 22:27S 36°51' E 174°46'0 0.0
2019-Feb-12 21:57S 36°51' E 174°46'0 0.0
2019-Feb-12 21:27S 36°51' E 174°46'0 0.0
2019-Feb-12 21:00S 36°51' E 174°46'0 0.0
2019-Feb-12 20:27S 36°51' E 174°46'0 0.0
2019-Feb-12 19:54S 36°51' E 174°46'0 0.0
2019-Feb-12 19:30S 36°51' E 174°46'0 0.0
2019-Feb-12 19:00S 36°51' E 174°46'0 0.0
2019-Feb-12 18:30S 36°51' E 174°46'0 0.0
2019-Feb-12 18:00S 36°51' E 174°46'0 0.0
2019-Feb-12 17:30S 36°51' E 174°46'1 1.0
2019-Feb-12 17:00S 36°50' E 174°47'3 6.1
2019-Feb-12 16:30S 36°48' E 174°49'510.9
2019-Feb-12 16:00S 36°43' E 174°52'510.0
2019-Feb-12 15:30S 36°39' E 174°56'5 9.6
2019-Feb-12 15:00S 36°35' E 174°58'5 9.9
2019-Feb-12 14:30S 36°30' E 174°59'5 9.8
2019-Feb-12 14:00S 36°25' E 174°59'5 9.9
2019-Feb-12 13:29S 36°20' E 174°58'59 2.1
2019-Feb-11 09:12S 36°42' E 176°06'317.2
2019-Feb-11 09:00S 36°46' E 176°07'917.1
2019-Feb-11 08:30S 36°54' E 176°09'917.1
2019-Feb-11 08:00S 37°03' E 176°09'916.9
2019-Feb-11 07:30S 37°11' E 176°08'816.7
2019-Feb-11 07:00S 37°19' E 176°08'816.3
2019-Feb-11 06:30S 37°27' E 176°10'714.7
2019-Feb-11 06:00S 37°35' E 176°11'4 8.3
2019-Feb-11 05:30S 37°39' E 176°11'0 0.3
2019-Feb-11 04:58S 37°39' E 176°11'0 0.0
2019-Feb-11 04:28S 37°39' E 176°11'0 0.0
2019-Feb-11 03:58S 37°39' E 176°11'0 0.0
2019-Feb-11 03:28S 37°39' E 176°11'0 0.0
2019-Feb-11 02:58S 37°39' E 176°11'0 0.0
2019-Feb-11 02:28S 37°39' E 176°11'0 0.0
2019-Feb-11 01:55S 37°39' E 176°11'0 0.0
2019-Feb-11 01:22S 37°39' E 176°11'0 0.0
2019-Feb-11 00:58S 37°39' E 176°11'0 0.0
2019-Feb-11 00:28S 37°39' E 176°11'0 0.0
2019-Feb-10 23:49S 37°39' E 176°11'0 0.0
2019-Feb-10 19:22S 37°39' E 176°11'0 0.0
2019-Feb-10 18:46S 37°39' E 176°11'0 0.0
2019-Feb-10 18:28S 37°39' E 176°11'0 0.0
2019-Feb-10 17:42S 37°39' E 176°11'0 0.9
2019-Feb-10 17:30S 37°39' E 176°11'2 4.4
2019-Feb-10 17:00S 37°36' E 176°11'510.4
2019-Feb-10 16:29S 37°33' E 176°16'612.5
2019-Feb-10 16:00S 37°30' E 176°22'612.3
2019-Feb-10 15:30S 37°27' E 176°29'612.3
2019-Feb-10 15:00S 37°26' E 176°37'612.4
2019-Feb-10 14:30S 37°25' E 176°45'612.4
2019-Feb-10 14:00S 37°24' E 176°52'612.9
2019-Feb-10 13:30S 37°23' E 177°00'713.2
2019-Feb-10 13:00S 37°23' E 177°09'612.8
2019-Feb-10 12:30S 37°23' E 177°17'612.5
2019-Feb-10 12:00S 37°24' E 177°25'1012.3
2019-Feb-10 11:13S 37°25' E 177°37'25210.0
2019-Feb-09 10:00S 41°24' E 175°54'3011.8 030 / 301015.0 17.0 18.0
2019-Feb-09 07:27S 41°42' E 175°22'612.6
2019-Feb-09 07:00S 41°42' E 175°14'612.5
2019-Feb-09 06:30S 41°40' E 175°06'613.0
2019-Feb-09 06:00S 41°36' E 174°59'713.4
2019-Feb-09 05:30S 41°31' E 174°53'714.0
2019-Feb-09 05:01S 41°25' E 174°50'813.2
2019-Feb-09 04:26S 41°17' E 174°51'3 5.3
2019-Feb-09 03:53S 41°16' E 174°47'0 0.0
2019-Feb-09 03:29S 41°16' E 174°47'0 0.0
2019-Feb-09 02:56S 41°16' E 174°47'0 0.0
2019-Feb-09 02:29S 41°16' E 174°47'0 0.0
2019-Feb-09 01:56S 41°16' E 174°47'0 0.0
2019-Feb-09 01:26S 41°16' E 174°47'0 0.0
2019-Feb-09 00:59S 41°16' E 174°47'0 0.0
2019-Feb-09 00:29S 41°16' E 174°47'0 0.0
2019-Feb-08 23:56S 41°16' E 174°47'0 0.0
2019-Feb-08 23:29S 41°16' E 174°47'0 0.0
2019-Feb-08 22:59S 41°16' E 174°47'0 0.0
2019-Feb-08 21:20S 41°16' E 174°47'0 0.0
2019-Feb-08 18:30S 41°16' E 174°47'6 7.3
2019-Feb-08 17:38S 41°22' E 174°50'213.4
2019-Feb-08 17:30S 41°24' E 174°49'714.6
2019-Feb-08 17:00S 41°30' E 174°46'815.1
2019-Feb-08 16:30S 41°38' E 174°43'714.8
2019-Feb-08 16:00S 41°44' E 174°39'714.7
2019-Feb-08 15:30S 41°51' E 174°34'714.9
2019-Feb-08 15:00S 41°58' E 174°30'714.1
2019-Feb-08 14:30S 42°04' E 174°25'714.4
2019-Feb-08 14:00S 42°10' E 174°20'714.3
2019-Feb-08 13:30S 42°17' E 174°16'338 6.8
2019-Feb-06 11:58S 46°43' E 169°24'816.9
2019-Feb-06 11:30S 46°45' E 169°13'917.1
2019-Feb-06 11:00S 46°46' E 169°01'918.9
2019-Feb-06 10:30S 46°43' E 168°48'918.3
2019-Feb-06 10:00S 46°42' E 168°34'917.9
2019-Feb-06 09:30S 46°41' E 168°21'918.5
2019-Feb-06 09:00S 46°38' E 168°09'917.1
2019-Feb-06 08:30S 46°36' E 167°57'1516.7
2019-Feb-06 07:38S 46°31' E 167°37'  

Dump ship's entire track history